createdAt,value
2023-03-07T00:00:22.679Z,74.80
2023-03-07T00:02:53.253Z,75.00
2023-03-07T00:05:21.079Z,74.60
2023-03-07T00:07:48.961Z,74.70
2023-03-07T00:10:17.065Z,74.60
2023-03-07T00:12:44.901Z,74.50
2023-03-07T00:15:12.995Z,74.30
2023-03-07T00:17:40.811Z,73.70
2023-03-07T00:20:14.235Z,73.90
2023-03-07T00:22:42.791Z,74.10
2023-03-07T00:25:11.605Z,73.60
2023-03-07T00:27:39.337Z,73.50
2023-03-07T00:30:07.978Z,73.40
2023-03-07T00:32:35.837Z,73.30
2023-03-07T00:35:03.631Z,73.50
2023-03-07T00:37:32.644Z,73.50
2023-03-07T00:40:00.445Z,73.50
2023-03-07T00:42:28.406Z,73.70
2023-03-07T00:44:56.184Z,73.70
2023-03-07T00:47:23.872Z,73.60
2023-03-07T00:49:51.702Z,73.70
2023-03-07T00:52:20.706Z,73.90
2023-03-07T00:54:49.782Z,73.70
2023-03-07T00:57:17.591Z,73.50
2023-03-07T00:59:46.844Z,73.40
2023-03-07T01:02:15.004Z,73.70
2023-03-07T01:04:42.945Z,73.90
2023-03-07T01:07:10.718Z,73.70
2023-03-07T01:09:38.704Z,73.50
2023-03-07T01:12:08.372Z,73.70
2023-03-07T01:14:36.115Z,74.30
2023-03-07T01:17:04.057Z,74.00
2023-03-07T01:19:31.811Z,74.80
2023-03-07T01:21:59.486Z,75.20
2023-03-07T01:24:27.364Z,75.80
2023-03-07T01:26:55.167Z,77.00
2023-03-07T01:29:25.997Z,77.70
2023-03-07T01:31:53.781Z,78.40
2023-03-07T01:34:21.910Z,79.00
2023-03-07T01:36:52.080Z,80.10
2023-03-07T01:39:20.057Z,80.50
2023-03-07T01:41:53.722Z,81.20
2023-03-07T01:44:27.412Z,82.20
2023-03-07T01:46:56.451Z,82.30
2023-03-07T01:49:30.967Z,82.50
2023-03-07T01:52:06.152Z,83.40
2023-03-07T01:54:38.592Z,84.40
2023-03-07T01:57:07.499Z,85.60
2023-03-07T01:59:41.132Z,86.20
2023-03-07T02:02:12.132Z,86.70
2023-03-07T02:04:45.358Z,87.70
2023-03-07T02:07:14.331Z,88.20
2023-03-07T02:09:44.264Z,89.00
2023-03-07T02:12:12.616Z,89.40
2023-03-07T02:14:44.654Z,89.80
2023-03-07T02:17:13.059Z,89.90
2023-03-07T02:19:52.729Z,90.00
2023-03-07T02:22:21.205Z,89.80
2023-03-07T02:24:54.218Z,89.50
2023-03-07T02:27:25.275Z,89.50
2023-03-07T02:29:53.389Z,90.30
2023-03-07T02:32:21.393Z,90.10
2023-03-07T02:34:49.161Z,90.20
2023-03-07T02:37:26.240Z,89.80
2023-03-07T02:39:55.658Z,89.70
2023-03-07T02:42:27.596Z,89.30
2023-03-07T02:45:05.496Z,88.90
2023-03-07T02:47:35.821Z,88.00
2023-03-07T02:50:03.792Z,87.80
2023-03-07T02:52:32.092Z,87.10
2023-03-07T02:55:00.008Z,87.10
2023-03-07T02:57:33.724Z,86.60
2023-03-07T03:00:06.002Z,85.70
2023-03-07T03:02:37.945Z,85.10
2023-03-07T03:05:06.194Z,84.30
2023-03-07T03:07:34.180Z,85.00
2023-03-07T03:10:03.336Z,85.10
2023-03-07T03:12:34.499Z,84.40
2023-03-07T03:15:02.804Z,83.10
2023-03-07T03:17:30.539Z,83.50
2023-03-07T03:19:58.705Z,83.10
2023-03-07T03:22:26.579Z,82.40
2023-03-07T03:24:54.585Z,82.40
2023-03-07T03:27:22.322Z,82.80
2023-03-07T03:29:56.012Z,82.90
2023-03-07T03:32:24.025Z,83.70
2023-03-07T03:34:51.788Z,84.20
2023-03-07T03:37:20.110Z,84.60
2023-03-07T03:39:48.127Z,85.20
2023-03-07T03:42:15.895Z,85.70
2023-03-07T03:44:43.761Z,85.20
2023-03-07T03:47:14.137Z,84.10
2023-03-07T03:49:41.980Z,83.20
2023-03-07T03:52:10.578Z,83.60
2023-03-07T03:54:38.548Z,84.00
2023-03-07T03:57:06.544Z,84.20
2023-03-07T03:59:34.411Z,82.80
2023-03-07T04:02:02.277Z,83.00
2023-03-07T04:04:31.435Z,82.20
2023-03-07T04:06:59.154Z,81.80
2023-03-07T04:09:27.035Z,82.00
2023-03-07T04:11:54.733Z,81.60
2023-03-07T04:14:22.713Z,81.70
2023-03-07T04:16:50.801Z,80.70
2023-03-07T04:19:18.495Z,80.10
2023-03-07T04:21:47.679Z,80.30
2023-03-07T04:24:17.520Z,80.20
2023-03-07T04:26:48.108Z,80.00
2023-03-07T04:29:16.531Z,79.60
2023-03-07T04:31:51.936Z,79.80
2023-03-07T04:34:19.858Z,79.20
2023-03-07T04:36:49.013Z,78.80
2023-03-07T04:39:16.854Z,78.70
2023-03-07T04:41:46.018Z,78.30
2023-03-07T04:44:23.354Z,78.10
2023-03-07T04:46:51.489Z,78.60
2023-03-07T04:49:19.453Z,78.30
2023-03-07T04:51:48.536Z,77.30
2023-03-07T04:54:18.280Z,77.90
2023-03-07T04:56:48.276Z,77.70
2023-03-07T04:59:16.427Z,77.60
2023-03-07T05:01:44.328Z,77.70
2023-03-07T05:04:12.181Z,77.50
2023-03-07T05:06:40.454Z,77.30
2023-03-07T05:09:10.314Z,77.50
2023-03-07T05:11:38.084Z,77.50
2023-03-07T05:14:07.672Z,77.20
2023-03-07T05:16:35.407Z,77.40
2023-03-07T05:19:05.891Z,77.50
2023-03-07T05:21:34.067Z,77.40
2023-03-07T05:24:02.459Z,76.90
2023-03-07T05:26:33.269Z,77.00
2023-03-07T05:29:01.234Z,76.80
2023-03-07T05:31:29.302Z,77.10
2023-03-07T05:33:57.357Z,77.10
2023-03-07T05:36:25.378Z,77.10
2023-03-07T05:38:56.167Z,76.80
2023-03-07T05:41:25.737Z,76.60
2023-03-07T05:43:55.299Z,76.70
2023-03-07T05:46:24.460Z,76.50
2023-03-07T05:48:52.515Z,77.00
2023-03-07T05:51:20.264Z,76.80
2023-03-07T05:53:49.053Z,76.70
2023-03-07T05:56:17.195Z,76.70
2023-03-07T05:58:44.978Z,76.80
2023-03-07T06:01:14.416Z,76.70
2023-03-07T06:03:43.966Z,76.60
2023-03-07T06:06:12.821Z,76.20
2023-03-07T06:08:41.715Z,76.20
2023-03-07T06:11:10.575Z,76.50
2023-03-07T06:13:39.941Z,76.60
2023-03-07T06:16:08.716Z,76.10
2023-03-07T06:18:40.402Z,76.20
2023-03-07T06:21:09.792Z,75.80
2023-03-07T06:23:43.296Z,75.80
2023-03-07T06:26:15.829Z,75.70
2023-03-07T06:28:46.908Z,75.70
2023-03-07T06:31:18.655Z,75.60
2023-03-07T06:33:48.386Z,75.50
2023-03-07T06:36:19.966Z,75.30
2023-03-07T06:38:53.326Z,74.90
2023-03-07T06:41:21.354Z,74.80
2023-03-07T06:43:52.304Z,74.90
2023-03-07T06:46:23.417Z,74.20
2023-03-07T06:48:52.844Z,74.70
2023-03-07T06:51:21.546Z,75.00
2023-03-07T06:53:50.131Z,76.30
2023-03-07T13:22:58.408Z,63.00
2023-03-07T13:25:48.741Z,60.10
2023-03-07T13:28:32.883Z,58.10
2023-03-07T13:31:26.619Z,58.20
2023-03-07T13:33:55.652Z,57.10
2023-03-07T13:36:39.388Z,56.10
2023-03-07T13:39:37.318Z,55.70
2023-03-07T13:42:42.919Z,55.40
2023-03-07T13:45:42.731Z,56.40
2023-03-07T13:48:17.787Z,57.00
2023-03-07T13:51:03.999Z,57.40
2023-03-07T13:53:39.329Z,56.90
2023-03-07T13:56:24.896Z,56.70
2023-03-07T13:58:59.962Z,57.10
2023-03-07T14:01:32.019Z,58.10
2023-03-07T14:04:06.834Z,57.60
2023-03-07T14:06:41.130Z,57.40
2023-03-07T14:09:15.883Z,57.50
2023-03-07T14:11:51.740Z,57.70
2023-03-07T14:14:46.718Z,58.10
2023-03-07T14:17:27.804Z,58.30
2023-03-07T14:20:10.560Z,58.40
2023-03-07T14:22:51.301Z,58.70
2023-03-07T14:25:22.577Z,59.40
2023-03-07T14:27:54.906Z,59.50
2023-03-07T14:30:25.672Z,59.30
2023-03-07T14:32:56.451Z,59.50
2023-03-07T14:35:42.147Z,58.80
2023-03-07T17:23:13.033Z,64.60
2023-03-07T17:25:43.184Z,61.70
2023-03-07T17:28:15.313Z,62.10
2023-03-07T17:30:45.501Z,62.00
2023-03-07T17:33:14.826Z,62.60
2023-03-07T17:35:43.018Z,62.50
2023-03-07T17:38:12.053Z,62.70
2023-03-07T17:40:39.868Z,63.40
2023-03-07T17:43:07.548Z,61.90
2023-03-07T17:45:35.253Z,62.40
2023-03-07T17:48:03.144Z,62.80
2023-03-07T17:50:30.841Z,63.50
2023-03-07T17:52:59.359Z,63.60
2023-03-07T17:55:28.596Z,63.10
2023-03-07T17:57:57.867Z,63.50
2023-03-07T18:00:26.722Z,63.00
2023-03-07T18:02:55.298Z,62.90
2023-03-07T18:05:25.832Z,63.40
2023-03-07T18:07:54.079Z,63.00
2023-03-07T18:10:24.014Z,63.20
2023-03-07T18:12:54.500Z,63.40
2023-03-07T18:15:23.115Z,63.90
2023-03-07T18:17:50.834Z,63.80
2023-03-07T18:20:19.921Z,63.90
2023-03-07T18:22:48.007Z,64.10
2023-03-07T18:25:17.301Z,64.20
2023-03-07T18:27:46.936Z,64.20
2023-03-07T18:30:16.902Z,64.30
2023-03-07T18:32:46.158Z,64.60
2023-03-07T18:35:16.226Z,65.00
2023-03-07T18:37:45.640Z,64.90
2023-03-07T18:40:13.896Z,65.00
2023-03-07T18:42:42.356Z,64.60
2023-03-07T18:45:11.304Z,64.30
2023-03-07T18:47:41.504Z,64.00
2023-03-07T18:50:10.869Z,64.00
2023-03-07T18:52:38.671Z,64.40
2023-03-07T18:55:13.180Z,63.80
2023-03-07T18:57:42.146Z,63.90
2023-03-07T19:00:11.341Z,63.70
2023-03-07T19:02:41.782Z,63.70
2023-03-07T19:05:11.746Z,63.60
2023-03-07T19:07:40.638Z,63.50
2023-03-07T19:10:09.333Z,63.20
2023-03-07T19:12:37.013Z,63.10
2023-03-07T19:15:05.236Z,63.10
2023-03-07T19:17:32.967Z,63.50
2023-03-07T19:20:03.347Z,63.10
2023-03-07T19:22:31.081Z,62.60
2023-03-07T19:24:58.831Z,62.90
2023-03-07T19:27:27.803Z,62.20
2023-03-07T19:29:55.549Z,62.80
2023-03-07T19:32:23.268Z,62.10
2023-03-07T19:34:51.196Z,62.30
2023-03-07T19:37:20.307Z,62.00
2023-03-07T19:39:51.907Z,62.40
2023-03-07T19:42:20.605Z,62.30
2023-03-07T19:44:48.644Z,62.70
2023-03-07T19:47:18.968Z,62.80
2023-03-07T19:49:47.979Z,62.90
2023-03-07T19:52:16.971Z,62.90
2023-03-07T19:54:46.291Z,63.00
2023-03-07T19:57:15.999Z,63.30
2023-03-07T19:59:43.837Z,63.10
2023-03-07T20:02:13.904Z,63.50
2023-03-07T20:04:41.798Z,63.40
2023-03-07T20:07:09.515Z,63.30
2023-03-07T20:09:37.550Z,63.50
2023-03-07T20:12:07.516Z,63.40
2023-03-07T20:14:38.300Z,63.50
2023-03-07T20:17:10.071Z,64.10
2023-03-07T20:19:39.316Z,63.70
2023-03-07T20:22:07.213Z,63.70
2023-03-07T20:24:36.844Z,64.20
2023-03-07T20:27:06.492Z,63.80
2023-03-07T20:29:34.268Z,64.30
2023-03-07T20:32:04.722Z,64.20
2023-03-07T20:34:32.576Z,64.00
2023-03-07T20:37:00.479Z,64.10
2023-03-07T20:39:28.922Z,63.50
2023-03-07T20:41:59.188Z,63.20
2023-03-07T20:44:28.320Z,63.10
2023-03-07T20:46:57.248Z,62.90
2023-03-07T20:49:25.186Z,62.90
2023-03-07T20:51:54.271Z,63.30
2023-03-07T20:54:22.211Z,63.00
2023-03-07T20:56:49.939Z,63.00
2023-03-07T20:59:19.248Z,63.10
2023-03-07T21:01:48.828Z,63.10
2023-03-07T21:04:20.224Z,63.00
2023-03-07T21:06:49.137Z,62.90
2023-03-07T21:09:19.382Z,62.60
2023-03-07T21:11:50.812Z,62.50
2023-03-07T21:14:20.562Z,62.50
2023-03-07T21:16:49.585Z,62.10
2023-03-07T21:19:17.332Z,62.40
2023-03-07T21:21:45.692Z,62.50
2023-03-07T21:24:15.348Z,62.30
2023-03-07T21:26:43.465Z,62.20
2023-03-07T21:29:13.209Z,62.20
2023-03-07T21:31:41.324Z,62.30
2023-03-07T21:34:13.784Z,62.10
2023-03-07T21:36:42.041Z,62.40
2023-03-07T21:39:09.989Z,62.10
2023-03-07T21:41:38.216Z,62.30
2023-03-07T21:44:06.387Z,61.90
2023-03-07T21:46:35.269Z,62.00
2023-03-07T21:49:03.396Z,61.90
2023-03-07T21:51:32.962Z,61.80
2023-03-07T21:54:01.269Z,62.00
2023-03-07T21:56:29.044Z,62.10
2023-03-07T21:58:56.938Z,61.50
2023-03-07T22:01:27.479Z,61.70
2023-03-07T22:03:56.602Z,61.50
2023-03-07T22:06:24.902Z,61.40
2023-03-07T22:08:54.591Z,61.50
2023-03-07T22:11:22.494Z,61.40
2023-03-07T22:13:50.413Z,61.60
2023-03-07T22:16:21.301Z,61.70
2023-03-07T22:18:53.360Z,61.80
2023-03-07T22:21:21.148Z,61.80
2023-03-07T22:23:48.895Z,62.10
2023-03-07T22:26:17.928Z,61.90
2023-03-07T22:28:45.634Z,62.20
2023-03-07T22:31:13.834Z,62.10
2023-03-07T22:33:42.699Z,62.40
2023-03-07T22:36:13.019Z,62.30
2023-03-07T22:38:41.562Z,62.50
2023-03-07T22:41:12.635Z,62.70
2023-03-07T22:43:41.754Z,62.70
2023-03-07T22:46:10.656Z,62.70
2023-03-07T22:48:38.567Z,62.90
2023-03-07T22:51:11.970Z,62.70
2023-03-07T22:53:39.634Z,63.00
2023-03-07T22:56:14.832Z,63.00
2023-03-07T22:58:43.988Z,62.90
2023-03-07T23:01:13.994Z,63.20
2023-03-07T23:03:41.815Z,63.30
2023-03-07T23:06:10.288Z,63.30
2023-03-07T23:08:37.981Z,63.20
2023-03-07T23:11:08.283Z,63.40
2023-03-07T23:13:36.257Z,63.30
2023-03-07T23:16:08.515Z,63.30
2023-03-07T23:18:36.464Z,63.70
2023-03-07T23:21:04.529Z,63.50
2023-03-07T23:23:32.348Z,63.60
2023-03-07T23:26:00.106Z,63.80
2023-03-07T23:28:28.037Z,63.60
2023-03-07T23:30:55.704Z,63.80
2023-03-07T23:33:24.791Z,63.90
2023-03-07T23:35:52.607Z,63.80
2023-03-07T23:38:20.326Z,63.80
2023-03-07T23:40:48.039Z,63.90
2023-03-07T23:43:15.746Z,63.80
2023-03-07T23:45:43.443Z,64.10
2023-03-07T23:48:11.760Z,63.80
2023-03-07T23:50:40.747Z,63.90
2023-03-07T23:53:08.545Z,64.10
2023-03-07T23:55:36.251Z,64.10
2023-03-07T23:58:03.973Z,64.10
